Time;durP1;ratioP1;P1;durP2;ratioP2;P2;SDS_P1;SDS_P2;PMS_P1;PMS_P2;Temp;Humidity;BMP_temperature;BMP_pressure;BME280_temperature;BME280_humidity;BME280_pressure;Samples;Min_cycle;Max_cycle;Signal;HPM_P1;HPM_P2
2023/05/10 00:01:07;;;;;;;2.88;2.10;;;;;;;;;;5074990;28;20384;-62
2023/05/10 00:03:32;;;;;;;3.83;2.25;;;;;;;;;;5074941;28;20028;-62
2023/05/10 00:05:58;;;;;;;3.97;2.15;;;;;;;;;;5074983;28;20353;-62
2023/05/10 00:08:24;;;;;;;3.33;2.13;;;;;;;;;;5073410;28;20021;-62
2023/05/10 00:10:49;;;;;;;4.00;2.30;;;;;;;;;;5074495;28;20028;-62
2023/05/10 00:13:15;;;;;;;3.25;2.28;;;;;;;;;;5074475;28;20027;-62
2023/05/10 00:15:40;;;;;;;2.20;2.00;;;;;;;;;;5074434;28;20111;-62
2023/05/10 00:18:06;;;;;;;3.15;2.22;;;;;;;;;;5074421;28;20024;-62
2023/05/10 00:20:31;;;;;;;3.22;2.15;;;;;;;;;;5074360;28;20036;-62
2023/05/10 00:22:57;;;;;;;2.53;2.22;;;;;;;;;;5074584;28;20082;-62
2023/05/10 00:25:22;;;;;;;2.90;2.17;;;;;;;;;;5074293;28;20029;-63
2023/05/10 00:27:49;;;;;;;2.70;2.05;;;;;;;;;;5073090;28;20426;-62
2023/05/10 00:30:15;;;;;;;3.65;2.53;;;;;;;;;;5074445;28;20052;-63
2023/05/10 00:32:40;;;;;;;3.40;2.22;;;;;;;;;;5074384;28;20060;-62
2023/05/10 00:35:06;;;;;;;1.90;1.80;;;;;;;;;;5074334;28;20417;-62
2023/05/10 00:37:32;;;;;;;2.30;2.10;;;;;;;;;;5074303;28;20028;-62
2023/05/10 00:39:57;;;;;;;2.10;2.00;;;;;;;;;;5073838;28;20443;-62
2023/05/10 00:42:23;;;;;;;3.58;2.22;;;;;;;;;;5073939;28;20021;-62
2023/05/10 00:44:48;;;;;;;2.42;2.10;;;;;;;;;;5073307;28;20028;-62
2023/05/10 00:47:16;;;;;;;4.00;2.30;;;;;;;;;;5073523;28;20020;-62
2023/05/10 00:49:42;;;;;;;2.63;2.42;;;;;;;;;;5074038;28;20069;-62
2023/05/10 00:52:08;;;;;;;2.97;2.20;;;;;;;;;;5073948;28;20103;-62
2023/05/10 00:54:34;;;;;;;2.63;2.30;;;;;;;;;;5074003;28;20029;-62
2023/05/10 00:56:59;;;;;;;2.30;2.10;;;;;;;;;;5073522;28;20039;-62
2023/05/10 00:59:25;;;;;;;2.15;2.05;;;;;;;;;;5073595;28;20081;-62
2023/05/10 01:01:51;;;;;;;2.42;2.17;;;;;;;;;;5073776;28;20025;-62
2023/05/10 01:04:17;;;;;;;2.50;2.13;;;;;;;;;;5073728;28;20025;-62
2023/05/10 01:06:42;;;;;;;2.53;2.20;;;;;;;;;;5073712;28;20358;-62
2023/05/10 01:09:08;;;;;;;2.13;1.95;;;;;;;;;;5072128;28;20025;-62
2023/05/10 01:11:39;;;;;;;2.95;2.10;;;;;;;;;;5073347;28;20032;-62
2023/05/10 01:14:06;;;;;;;3.25;2.33;;;;;;;;;;5073286;28;20020;-62
2023/05/10 01:16:42;;;;;;;2.17;2.00;;;;;;;;;;5073146;28;20075;-62
2023/05/10 01:19:18;;;;;;;2.80;1.80;;;;;;;;;;5073254;28;20031;-62
2023/05/10 01:22:06;;;;;;;4.85;2.65;;;;;;;;;;5073146;28;20029;-62
2023/05/10 01:24:40;;;;;;;3.13;2.50;;;;;;;;;;5073484;28;20387;-62
2023/05/10 01:27:06;;;;;;;3.28;2.20;;;;;;;;;;5072975;28;20475;-62
2023/05/10 01:30:04;;;;;;;3.28;2.63;;;;;;;;;;5073284;28;20086;-62
2023/05/10 01:32:47;;;;;;;3.67;2.20;;;;;;;;;;5072877;28;20020;-62
2023/05/10 01:35:39;;;;;;;3.40;2.05;;;;;;;;;;5072838;28;20044;-62
2023/05/10 01:38:40;;;;;;;1.90;1.80;;;;;;;;;;5067368;28;20519;-62
2023/05/10 01:41:15;;;;;;;2.30;2.10;;;;;;;;;;5069671;28;20044;-62
2023/05/10 01:43:57;;;;;;;5.40;2.13;;;;;;;;;;5073090;28;20025;-62
2023/05/10 01:46:38;;;;;;;2.15;2.03;;;;;;;;;;5073002;28;20029;-62
2023/05/10 01:49:15;;;;;;;2.10;1.90;;;;;;;;;;5072726;28;20035;-62
2023/05/10 01:51:46;;;;;;;7.72;2.67;;;;;;;;;;5072947;28;20028;-62
2023/05/10 01:54:13;;;;;;;4.00;2.08;;;;;;;;;;5072788;28;20135;-62
2023/05/10 01:56:41;;;;;;;2.97;1.95;;;;;;;;;;5072284;28;20021;-62
2023/05/10 01:59:12;;;;;;;3.10;2.55;;;;;;;;;;5072541;28;20031;-63
2023/05/10 02:01:39;;;;;;;2.00;1.90;;;;;;;;;;5072515;28;20017;-62
2023/05/10 02:04:07;;;;;;;1.90;1.80;;;;;;;;;;5072810;28;20428;-62
2023/05/10 02:06:33;;;;;;;2.20;2.00;;;;;;;;;;5072481;28;20024;-63
2023/05/10 02:09:01;;;;;;;2.85;2.20;;;;;;;;;;5072686;28;20024;-62
2023/05/10 02:11:28;;;;;;;2.22;2.03;;;;;;;;;;5071197;28;20024;-62
2023/05/10 02:13:55;;;;;;;2.47;2.25;;;;;;;;;;5072407;28;20074;-62
2023/05/10 02:16:25;;;;;;;4.65;2.10;;;;;;;;;;5072561;28;20040;-62
2023/05/10 02:18:52;;;;;;;2.35;2.15;;;;;;;;;;5072361;28;20029;-62
2023/05/10 02:21:20;;;;;;;2.28;2.08;;;;;;;;;;5072307;28;20483;-62
2023/05/10 02:23:48;;;;;;;3.53;2.28;;;;;;;;;;5072275;28;20422;-63
2023/05/10 02:26:15;;;;;;;4.10;2.35;;;;;;;;;;5072238;28;20111;-62
2023/05/10 02:28:42;;;;;;;2.30;2.10;;;;;;;;;;5072761;28;20052;-62
2023/05/10 02:31:10;;;;;;;3.60;2.00;;;;;;;;;;5072228;28;20120;-63
2023/05/10 02:33:40;;;;;;;3.53;1.90;;;;;;;;;;5072427;28;20024;-62
2023/05/10 02:36:08;;;;;;;2.35;2.00;;;;;;;;;;5072368;28;20429;-62
2023/05/10 02:38:36;;;;;;;2.03;1.92;;;;;;;;;;5071907;28;20082;-62
2023/05/10 02:41:04;;;;;;;2.00;1.90;;;;;;;;;;5072132;28;20035;-62
2023/05/10 02:43:33;;;;;;;2.30;2.10;;;;;;;;;;5072410;28;20099;-63
2023/05/10 02:45:58;;;;;;;2.88;2.00;;;;;;;;;;5072344;28;20384;-62
2023/05/10 02:48:24;;;;;;;2.10;1.90;;;;;;;;;;5072005;28;20024;-62
2023/05/10 02:50:52;;;;;;;2.92;2.30;;;;;;;;;;5072341;28;20190;-62
2023/05/10 02:53:31;;;;;;;2.20;2.00;;;;;;;;;;5071964;28;20056;-62
2023/05/10 02:56:00;;;;;;;3.97;2.20;;;;;;;;;;5072259;28;20025;-62
2023/05/10 02:58:26;;;;;;;4.25;2.10;;;;;;;;;;5072170;28;20468;-62
2023/05/10 03:00:52;;;;;;;3.67;2.08;;;;;;;;;;5072187;28;20028;-62
2023/05/10 03:03:18;;;;;;;2.20;2.00;;;;;;;;;;5072120;28;20063;-62
2023/05/10 03:05:43;;;;;;;2.08;1.88;;;;;;;;;;5072253;28;20024;-62
2023/05/10 03:08:09;;;;;;;2.28;1.83;;;;;;;;;;5071920;28;20025;-62
2023/05/10 03:10:47;;;;;;;3.17;2.30;;;;;;;;;;5075939;28;20028;-62
2023/05/10 03:13:21;;;;;;;3.60;2.22;;;;;;;;;;5075898;28;20028;-62
2023/05/10 03:16:20;;;;;;;3.40;2.05;;;;;;;;;;5075616;28;20025;-62
2023/05/10 03:19:00;;;;;;;5.45;2.20;;;;;;;;;;5075502;28;20025;-62
2023/05/10 03:21:29;;;;;;;2.15;1.95;;;;;;;;;;5075510;28;20024;-62
2023/05/10 03:24:16;;;;;;;1.73;1.63;;;;;;;;;;5075412;28;20035;-62
2023/05/10 03:26:44;;;;;;;2.42;2.00;;;;;;;;;;5075313;28;20032;-62
2023/05/10 03:29:11;;;;;;;2.15;1.98;;;;;;;;;;5075323;28;20147;-62
2023/05/10 03:31:38;;;;;;;2.50;2.03;;;;;;;;;;5075286;28;20079;-62
2023/05/10 03:34:04;;;;;;;3.55;1.85;;;;;;;;;;5075236;28;20020;-62
2023/05/10 03:36:29;;;;;;;3.55;2.13;;;;;;;;;;5075414;28;20086;-62
2023/05/10 03:38:55;;;;;;;2.35;1.80;;;;;;;;;;5074952;28;20076;-62
2023/05/10 03:41:21;;;;;;;2.20;2.00;;;;;;;;;;5075091;28;20017;-62
2023/05/10 03:43:46;;;;;;;3.75;2.10;;;;;;;;;;5075021;28;20029;-62
2023/05/10 03:46:12;;;;;;;2.47;1.88;;;;;;;;;;5075048;28;20124;-62
2023/05/10 03:48:37;;;;;;;2.58;1.80;;;;;;;;;;5075002;28;20469;-62
2023/05/10 03:51:03;;;;;;;2.13;1.92;;;;;;;;;;5073708;28;20039;-62
2023/05/10 03:53:28;;;;;;;8.50;1.80;;;;;;;;;;5074948;28;20036;-62
2023/05/10 03:55:54;;;;;;;2.00;1.90;;;;;;;;;;5073841;28;20385;-62
2023/05/10 03:58:20;;;;;;;2.28;2.08;;;;;;;;;;5074798;28;20029;-62
2023/05/10 04:00:45;;;;;;;2.20;2.00;;;;;;;;;;5056800;28;20025;-62
2023/05/10 04:03:12;;;;;;;2.10;1.90;;;;;;;;;;5075030;28;20028;-61
2023/05/10 04:05:37;;;;;;;2.08;1.83;;;;;;;;;;5074666;28;20024;-62
2023/05/10 04:08:04;;;;;;;2.50;2.08;;;;;;;;;;5074923;28;20032;-61
2023/05/10 04:10:29;;;;;;;2.28;2.08;;;;;;;;;;5074561;28;20491;-61
2023/05/10 04:12:55;;;;;;;2.30;2.08;;;;;;;;;;5074493;28;20033;-62
2023/05/10 04:15:21;;;;;;;1.98;1.88;;;;;;;;;;5074342;28;20039;-62
2023/05/10 04:17:46;;;;;;;2.65;2.10;;;;;;;;;;5074714;28;20021;-62
2023/05/10 04:20:12;;;;;;;2.67;1.83;;;;;;;;;;5074268;28;20406;-61
2023/05/10 04:22:38;;;;;;;1.90;1.75;;;;;;;;;;5074366;28;20028;-60
2023/05/10 04:25:04;;;;;;;2.05;1.90;;;;;;;;;;5074365;28;20025;-62
2023/05/10 04:27:30;;;;;;;1.98;1.83;;;;;;;;;;5074563;28;20029;-61
2023/05/10 04:29:56;;;;;;;2.30;2.10;;;;;;;;;;5074249;28;20024;-61
2023/05/10 04:32:22;;;;;;;2.20;2.00;;;;;;;;;;5074123;28;20027;-61
2023/05/10 04:34:47;;;;;;;2.80;2.15;;;;;;;;;;5074409;28;20031;-61
2023/05/10 04:37:13;;;;;;;2.55;1.88;;;;;;;;;;5074431;28;20362;-62
2023/05/10 04:39:38;;;;;;;1.80;1.70;;;;;;;;;;5073927;28;20048;-63
2023/05/10 04:42:05;;;;;;;2.17;1.98;;;;;;;;;;5074240;28;20063;-63
2023/05/10 04:44:31;;;;;;;2.15;1.95;;;;;;;;;;5074105;28;20035;-62
2023/05/10 04:46:57;;;;;;;2.05;1.85;;;;;;;;;;5073826;28;20468;-63
2023/05/10 04:49:22;;;;;;;2.10;1.90;;;;;;;;;;5073755;28;20028;-63
2023/05/10 04:51:48;;;;;;;2.25;2.03;;;;;;;;;;5074016;28;20021;-62
2023/05/10 04:54:13;;;;;;;2.20;2.00;;;;;;;;;;5074006;28;20031;-62
2023/05/10 04:56:39;;;;;;;2.10;1.90;;;;;;;;;;5073580;28;20098;-63
2023/05/10 04:59:04;;;;;;;2.33;1.95;;;;;;;;;;5073531;28;20028;-62
2023/05/10 05:01:30;;;;;;;2.40;2.10;;;;;;;;;;5073762;28;20020;-62
2023/05/10 05:03:56;;;;;;;1.90;1.80;;;;;;;;;;5073425;28;20028;-63
2023/05/10 05:06:21;;;;;;;2.25;2.05;;;;;;;;;;5073448;28;20159;-61
2023/05/10 05:08:49;;;;;;;2.30;2.10;;;;;;;;;;5073943;28;20461;-61
2023/05/10 05:11:14;;;;;;;3.53;1.95;;;;;;;;;;5073655;28;20099;-62
2023/05/10 05:13:40;;;;;;;2.10;1.90;;;;;;;;;;5073555;28;20507;-62
2023/05/10 05:16:06;;;;;;;2.08;1.88;;;;;;;;;;5073412;28;20051;-62
2023/05/10 05:18:31;;;;;;;2.53;2.05;;;;;;;;;;5073508;28;20468;-62
2023/05/10 05:20:57;;;;;;;2.15;1.95;;;;;;;;;;5073333;28;20081;-62
2023/05/10 05:23:24;;;;;;;3.72;1.90;;;;;;;;;;5073106;28;20048;-62
2023/05/10 05:25:54;;;;;;;2.42;2.08;;;;;;;;;;5073440;28;20017;-61
2023/05/10 05:28:20;;;;;;;2.33;2.17;;;;;;;;;;5073033;28;20040;-62
2023/05/10 05:30:46;;;;;;;2.17;2.00;;;;;;;;;;5073106;28;20086;-62
2023/05/10 05:33:13;;;;;;;2.22;2.00;;;;;;;;;;5072591;28;20033;-62
2023/05/10 05:35:39;;;;;;;1.95;1.85;;;;;;;;;;5073084;28;20130;-62
2023/05/10 05:38:05;;;;;;;2.50;2.30;;;;;;;;;;5072775;28;20362;-63
2023/05/10 05:40:30;;;;;;;2.55;2.35;;;;;;;;;;5072604;28;20044;-63
2023/05/10 05:42:56;;;;;;;2.30;2.10;;;;;;;;;;5072737;28;20108;-63
2023/05/10 05:45:21;;;;;;;2.95;2.40;;;;;;;;;;5073088;28;20119;-62
2023/05/10 05:47:47;;;;;;;2.42;2.10;;;;;;;;;;5072944;28;20116;-64
2023/05/10 05:50:13;;;;;;;2.50;2.30;;;;;;;;;;5072982;28;20408;-63
2023/05/10 05:52:38;;;;;;;2.30;2.17;;;;;;;;;;5071391;28;20499;-63
2023/05/10 05:55:04;;;;;;;2.85;2.28;;;;;;;;;;5072604;28;20119;-62
2023/05/10 05:57:30;;;;;;;2.28;2.03;;;;;;;;;;5072848;28;20119;-63
2023/05/10 05:59:55;;;;;;;2.13;1.98;;;;;;;;;;5072836;28;20071;-63
2023/05/10 06:02:21;;;;;;;2.35;2.15;;;;;;;;;;5072517;28;20460;-63
2023/05/10 06:04:47;;;;;;;2.67;2.00;;;;;;;;;;5076770;28;20032;-64
2023/05/10 06:07:12;;;;;;;4.97;2.20;;;;;;;;;;5088358;28;20030;-64
2023/05/10 06:09:38;;;;;;;2.58;2.38;;;;;;;;;;5088286;28;20016;-64
2023/05/10 06:12:03;;;;;;;2.70;2.05;;;;;;;;;;5087662;28;20024;-63
2023/05/10 06:14:29;;;;;;;3.33;2.10;;;;;;;;;;5085916;28;20035;-63
2023/05/10 06:16:54;;;;;;;3.55;2.38;;;;;;;;;;5087744;28;20439;-63
2023/05/10 06:19:20;;;;;;;2.10;1.90;;;;;;;;;;5087219;28;20060;-63
2023/05/10 06:21:45;;;;;;;3.55;2.17;;;;;;;;;;5088580;28;20024;-64
2023/05/10 06:24:11;;;;;;;2.75;2.17;;;;;;;;;;5088249;28;20209;-62
2023/05/10 06:26:37;;;;;;;2.78;2.30;;;;;;;;;;5087735;28;20048;-63
2023/05/10 06:29:02;;;;;;;2.33;2.10;;;;;;;;;;5090264;28;20020;-62
2023/05/10 06:31:28;;;;;;;2.30;2.00;;;;;;;;;;5091707;28;20074;-62
2023/05/10 06:33:53;;;;;;;2.47;2.20;;;;;;;;;;5086672;28;20102;-63
2023/05/10 06:36:19;;;;;;;4.07;2.42;;;;;;;;;;5088825;28;20529;-63
2023/05/10 06:38:44;;;;;;;2.20;2.00;;;;;;;;;;5088873;28;20055;-62
2023/05/10 06:41:10;;;;;;;2.47;2.13;;;;;;;;;;5090647;28;20047;-62
2023/05/10 06:43:39;;;;;;;2.30;2.10;;;;;;;;;;5091883;28;20438;-62
2023/05/10 06:46:05;;;;;;;2.28;2.05;;;;;;;;;;5094692;28;20459;-61
2023/05/10 06:48:31;;;;;;;2.25;2.05;;;;;;;;;;5094737;28;20032;-63
2023/05/10 06:50:56;;;;;;;2.10;1.90;;;;;;;;;;5094737;28;20103;-61
2023/05/10 06:53:22;;;;;;;2.25;2.10;;;;;;;;;;5094587;28;20035;-61
2023/05/10 06:55:49;;;;;;;2.42;2.22;;;;;;;;;;5090844;28;20071;-62
2023/05/10 06:58:14;;;;;;;2.22;2.03;;;;;;;;;;5074000;28;20036;-62
2023/05/10 07:00:42;;;;;;;3.10;2.20;;;;;;;;;;5090919;28;20652;-61
2023/05/10 07:03:08;;;;;;;2.53;2.10;;;;;;;;;;5093450;28;20107;-62
2023/05/10 07:05:33;;;;;;;2.75;2.10;;;;;;;;;;5093442;28;20425;-62
2023/05/10 07:07:59;;;;;;;5.90;2.33;;;;;;;;;;5093850;28;20097;-63
2023/05/10 07:10:24;;;;;;;3.60;2.20;;;;;;;;;;5093917;28;20055;-62
2023/05/10 07:12:50;;;;;;;5.90;2.40;;;;;;;;;;5093699;28;20490;-62
2023/05/10 07:15:15;;;;;;;3.17;2.10;;;;;;;;;;5094414;28;20105;-61
2023/05/10 07:17:41;;;;;;;4.65;2.63;;;;;;;;;;5093251;28;20028;-61
2023/05/10 07:20:09;;;;;;;4.07;2.30;;;;;;;;;;5091569;28;20593;-63
2023/05/10 07:22:35;;;;;;;3.45;2.13;;;;;;;;;;5091404;28;20506;-62
2023/05/10 07:25:01;;;;;;;2.47;1.98;;;;;;;;;;5076859;28;20037;-62
2023/05/10 07:27:26;;;;;;;2.25;2.05;;;;;;;;;;5073689;28;20035;-62
2023/05/10 07:29:52;;;;;;;2.40;2.08;;;;;;;;;;5073568;28;20020;-61
2023/05/10 07:32:17;;;;;;;3.10;2.40;;;;;;;;;;5073728;28;20028;-61
2023/05/10 07:34:43;;;;;;;2.45;2.10;;;;;;;;;;5073842;28;20494;-62
2023/05/10 07:37:08;;;;;;;4.38;2.42;;;;;;;;;;5073648;28;20052;-62
2023/05/10 07:39:34;;;;;;;2.95;1.92;;;;;;;;;;5072616;28;20127;-62
2023/05/10 07:41:59;;;;;;;2.55;2.20;;;;;;;;;;5072182;28;20035;-62
2023/05/10 07:44:25;;;;;;;4.00;2.10;;;;;;;;;;5072183;28;20107;-63
2023/05/10 07:46:51;;;;;;;2.45;2.25;;;;;;;;;;5072494;28;20028;-62
2023/05/10 07:49:17;;;;;;;3.55;2.20;;;;;;;;;;5072132;28;20028;-63
2023/05/10 07:51:43;;;;;;;2.40;2.10;;;;;;;;;;5072625;28;20054;-62
2023/05/10 07:54:08;;;;;;;2.20;2.00;;;;;;;;;;5072014;28;20021;-63
2023/05/10 07:56:34;;;;;;;2.70;2.00;;;;;;;;;;5072386;28;20450;-61
2023/05/10 07:59:00;;;;;;;2.20;2.00;;;;;;;;;;5072073;28;20028;-62
2023/05/10 08:01:26;;;;;;;3.33;2.33;;;;;;;;;;5072381;28;20497;-62
2023/05/10 08:03:53;;;;;;;2.13;1.90;;;;;;;;;;5072185;28;20365;-60
2023/05/10 08:06:19;;;;;;;2.38;2.17;;;;;;;;;;5071974;28;20416;-62
2023/05/10 08:08:53;;;;;;;2.88;2.10;;;;;;;;;;5072184;28;20020;-62
2023/05/10 08:11:22;;;;;;;2.53;2.25;;;;;;;;;;5072177;28;20028;-62
2023/05/10 08:13:49;;;;;;;3.35;2.47;;;;;;;;;;5072055;28;20040;-62
2023/05/10 08:16:16;;;;;;;2.70;1.90;;;;;;;;;;5071651;28;20040;-62
2023/05/10 08:18:43;;;;;;;2.00;1.85;;;;;;;;;;5072288;28;20025;-62
2023/05/10 08:21:08;;;;;;;3.60;2.00;;;;;;;;;;5071756;28;20027;-63
2023/05/10 08:23:34;;;;;;;2.53;2.15;;;;;;;;;;5072014;28;20404;-63
2023/05/10 08:26:00;;;;;;;2.72;2.13;;;;;;;;;;5071746;28;20567;-62
2023/05/10 08:28:25;;;;;;;4.20;2.00;;;;;;;;;;5079585;28;20035;-62
2023/05/10 08:30:51;;;;;;;2.85;2.13;;;;;;;;;;5091731;28;20036;-62
2023/05/10 08:33:18;;;;;;;3.30;2.30;;;;;;;;;;5091681;28;20024;-62
2023/05/10 08:35:44;;;;;;;3.58;2.00;;;;;;;;;;5091634;28;20043;-62
2023/05/10 08:38:09;;;;;;;2.67;2.10;;;;;;;;;;5090289;28;20028;-62
2023/05/10 08:40:37;;;;;;;3.20;2.20;;;;;;;;;;5045913;28;1283522;-63
2023/05/10 08:43:08;;;;;;;2.00;1.80;;;;;;;;;;5092565;28;20044;-64
2023/05/10 08:45:38;;;;;;;6.00;2.20;;;;;;;;;;5092393;28;20031;-62
2023/05/10 08:48:06;;;;;;;6.10;2.25;;;;;;;;;;5091987;28;20107;-62
2023/05/10 08:50:33;;;;;;;5.05;2.25;;;;;;;;;;5091039;28;20038;-62
2023/05/10 08:53:03;;;;;;;3.40;2.22;;;;;;;;;;5090585;28;20103;-62
2023/05/10 08:55:28;;;;;;;3.97;2.50;;;;;;;;;;5090869;28;20032;-62
2023/05/10 08:57:54;;;;;;;2.88;2.00;;;;;;;;;;5091798;28;20032;-62
2023/05/10 09:00:22;;;;;;;3.10;2.00;;;;;;;;;;5090921;28;20472;-61
2023/05/10 09:02:50;;;;;;;3.17;1.90;;;;;;;;;;5092043;28;20484;-62
2023/05/10 09:05:16;;;;;;;2.50;2.30;;;;;;;;;;5092425;28;20096;-62
2023/05/10 09:07:41;;;;;;;3.35;2.30;;;;;;;;;;5091978;28;20104;-62
2023/05/10 09:10:09;;;;;;;3.03;2.70;;;;;;;;;;5091968;28;20534;-63
2023/05/10 09:12:35;;;;;;;2.88;2.20;;;;;;;;;;5092193;28;20481;-61
2023/05/10 09:15:03;;;;;;;3.42;2.40;;;;;;;;;;5091884;28;20020;-62
2023/05/10 09:17:30;;;;;;;2.90;2.20;;;;;;;;;;5091885;28;20040;-63
2023/05/10 09:20:03;;;;;;;3.67;2.10;;;;;;;;;;5091875;28;20020;-63
2023/05/10 09:22:35;;;;;;;2.20;2.00;;;;;;;;;;5091928;28;20544;-62
2023/05/10 09:25:09;;;;;;;2.55;2.05;;;;;;;;;;5091736;28;20032;-63
2023/05/10 09:27:38;;;;;;;3.00;2.00;;;;;;;;;;5091642;28;20491;-63
2023/05/10 09:30:05;;;;;;;2.47;2.28;;;;;;;;;;5090572;28;20028;-62
2023/05/10 09:32:41;;;;;;;3.72;2.40;;;;;;;;;;5091867;28;20035;-62
2023/05/10 09:35:11;;;;;;;4.45;2.50;;;;;;;;;;5091531;28;20534;-62
2023/05/10 09:37:43;;;;;;;2.67;2.05;;;;;;;;;;5091434;28;20040;-63
2023/05/10 09:40:15;;;;;;;3.63;2.00;;;;;;;;;;5091328;28;20507;-62
2023/05/10 09:42:42;;;;;;;4.18;2.45;;;;;;;;;;5091403;28;20042;-63
2023/05/10 09:45:08;;;;;;;3.03;2.03;;;;;;;;;;5091768;28;20111;-62
2023/05/10 09:47:35;;;;;;;3.15;2.10;;;;;;;;;;5091589;28;20416;-62
2023/05/10 09:50:03;;;;;;;5.15;2.40;;;;;;;;;;5091651;28;20028;-62
2023/05/10 09:52:46;;;;;;;2.95;2.55;;;;;;;;;;5091210;28;20020;-62
2023/05/10 09:55:12;;;;;;;1.95;1.83;;;;;;;;;;5089958;28;20111;-62
2023/05/10 09:57:37;;;;;;;2.80;2.45;;;;;;;;;;5091125;28;20166;-62
2023/05/10 10:00:04;;;;;;;3.30;2.30;;;;;;;;;;5091132;28;20115;-62
2023/05/10 10:02:31;;;;;;;2.55;2.20;;;;;;;;;;5091517;28;20028;-61
2023/05/10 10:04:57;;;;;;;2.78;2.47;;;;;;;;;;5091066;28;20028;-61
2023/05/10 10:07:27;;;;;;;3.05;2.20;;;;;;;;;;5091073;28;20188;-62
2023/05/10 10:09:53;;;;;;;3.17;2.30;;;;;;;;;;5091386;28;20075;-62
2023/05/10 10:12:19;;;;;;;3.13;2.33;;;;;;;;;;5091100;28;20081;-63
2023/05/10 10:14:47;;;;;;;5.43;2.15;;;;;;;;;;5091174;28;20353;-61
2023/05/10 10:17:13;;;;;;;3.90;2.22;;;;;;;;;;5090722;28;20035;-63
2023/05/10 10:19:40;;;;;;;3.65;2.40;;;;;;;;;;5091442;28;20125;-62
2023/05/10 10:22:06;;;;;;;2.63;2.30;;;;;;;;;;5090804;28;20032;-62
2023/05/10 10:24:31;;;;;;;3.30;2.03;;;;;;;;;;5090897;28;20039;-62
2023/05/10 10:27:22;;;;;;;3.10;2.42;;;;;;;;;;5090788;28;20107;-63
2023/05/10 10:29:56;;;;;;;3.72;2.38;;;;;;;;;;5090159;28;20032;-62
2023/05/10 10:32:58;;;;;;;2.38;2.10;;;;;;;;;;5090807;28;20112;-62
2023/05/10 10:35:23;;;;;;;3.28;2.28;;;;;;;;;;5090388;28;20105;-63
2023/05/10 10:37:50;;;;;;;4.40;2.38;;;;;;;;;;5090833;28;20406;-63
2023/05/10 10:40:25;;;;;;;4.95;2.35;;;;;;;;;;5090647;28;20157;-62
2023/05/10 10:42:51;;;;;;;3.20;2.22;;;;;;;;;;5090639;28;20020;-63
2023/05/10 10:45:16;;;;;;;4.80;2.40;;;;;;;;;;5090762;28;20373;-63
2023/05/10 10:47:43;;;;;;;2.45;2.25;;;;;;;;;;5090883;28;20119;-63
2023/05/10 10:50:10;;;;;;;5.63;2.50;;;;;;;;;;5090844;28;20609;-59
2023/05/10 10:52:38;;;;;;;5.40;2.33;;;;;;;;;;5090450;28;20028;-61
2023/05/10 10:55:09;;;;;;;5.35;2.50;;;;;;;;;;5090601;28;20028;-63
2023/05/10 10:58:04;;;;;;;4.47;2.40;;;;;;;;;;5090478;28;20064;-64
2023/05/10 11:00:35;;;;;;;4.05;2.28;;;;;;;;;;5092235;28;20026;-57
2023/05/10 11:03:18;;;;;;;3.97;2.53;;;;;;;;;;5092074;28;20024;-62
2023/05/10 11:05:48;;;;;;;3.58;2.38;;;;;;;;;;5091940;28;20025;-62
2023/05/10 11:08:13;;;;;;;4.68;2.50;;;;;;;;;;5091024;28;20251;-62
2023/05/10 11:10:40;;;;;;;2.72;2.25;;;;;;;;;;5090478;28;20031;-64
2023/05/10 11:13:08;;;;;;;4.07;2.30;;;;;;;;;;5091294;28;20409;-63
2023/05/10 11:15:38;;;;;;;3.03;2.30;;;;;;;;;;5092071;28;20031;-63
2023/05/10 11:18:20;;;;;;;4.22;2.28;;;;;;;;;;5091841;28;20536;-62
2023/05/10 11:20:51;;;;;;;3.47;2.35;;;;;;;;;;5092052;28;20115;-61
2023/05/10 11:23:17;;;;;;;2.30;2.10;;;;;;;;;;5091840;28;20021;-61
2023/05/10 11:25:45;;;;;;;3.92;2.60;;;;;;;;;;5091899;28;20036;-61
2023/05/10 11:28:12;;;;;;;2.15;2.00;;;;;;;;;;5091871;28;20024;-61
2023/05/10 11:30:43;;;;;;;2.92;2.33;;;;;;;;;;5094270;28;20020;-61
2023/05/10 11:33:10;;;;;;;3.95;2.15;;;;;;;;;;5095879;28;20379;-62
2023/05/10 11:35:39;;;;;;;3.13;2.10;;;;;;;;;;5095736;28;20376;-61
2023/05/10 11:38:09;;;;;;;2.53;2.05;;;;;;;;;;5095822;28;20103;-63
2023/05/10 11:40:35;;;;;;;;;;;;;;;;;;5095789;28;20384;-61
2023/05/10 11:43:01;;;;;;;2.40;2.20;;;;;;;;;;5095654;28;20040;-61
2023/05/10 11:45:31;;;;;;;4.47;2.50;;;;;;;;;;5095530;28;20141;-62
2023/05/10 11:47:57;;;;;;;4.45;2.50;;;;;;;;;;5095538;28;20020;-62
2023/05/10 11:50:23;;;;;;;2.53;2.28;;;;;;;;;;5095168;28;20020;-62
2023/05/10 11:52:53;;;;;;;3.33;2.40;;;;;;;;;;5095265;28;20024;-61
2023/05/10 11:55:19;;;;;;;3.78;2.15;;;;;;;;;;5095357;28;20419;-61
2023/05/10 11:57:45;;;;;;;4.63;2.30;;;;;;;;;;5094919;28;20476;-61
2023/05/10 12:00:12;;;;;;;3.80;2.30;;;;;;;;;;5077024;28;20032;-61
2023/05/10 12:02:38;;;;;;;3.15;2.20;;;;;;;;;;5094927;28;20028;-61
2023/05/10 12:05:05;;;;;;;3.40;2.30;;;;;;;;;;5095005;28;20020;-62
2023/05/10 12:07:31;;;;;;;3.67;2.00;;;;;;;;;;5094857;28;20479;-62
2023/05/10 12:10:17;;;;;;;2.25;1.90;;;;;;;;;;5095084;28;20065;-61
2023/05/10 12:12:49;;;;;;;4.90;2.05;;;;;;;;;;5095077;28;20105;-61
2023/05/10 12:15:20;;;;;;;2.25;2.03;;;;;;;;;;5094985;28;20380;-63
2023/05/10 12:17:47;;;;;;;2.72;2.20;;;;;;;;;;5094617;28;20464;-61
2023/05/10 12:20:15;;;;;;;3.03;1.95;;;;;;;;;;5094971;28;20051;-62
2023/05/10 12:22:43;;;;;;;2.13;1.95;;;;;;;;;;5094586;28;20020;-61
2023/05/10 12:25:10;;;;;;;2.15;1.85;;;;;;;;;;5094431;28;20029;-61
2023/05/10 12:27:35;;;;;;;4.30;2.22;;;;;;;;;;5093765;28;20047;-60
2023/05/10 12:30:02;;;;;;;3.08;2.08;;;;;;;;;;5094391;28;20376;-60
2023/05/10 12:32:41;;;;;;;2.70;2.10;;;;;;;;;;5094363;28;20024;-62
2023/05/10 12:35:08;;;;;;;2.72;1.80;;;;;;;;;;5094418;28;20059;-62
2023/05/10 12:37:38;;;;;;;2.88;2.33;;;;;;;;;;5094217;28;20165;-62
2023/05/10 12:40:06;;;;;;;2.78;2.20;;;;;;;;;;5094244;28;20101;-61
2023/05/10 12:42:32;;;;;;;2.53;2.15;;;;;;;;;;5092959;28;20099;-62
2023/05/10 12:44:58;;;;;;;2.88;2.00;;;;;;;;;;5094242;28;20103;-61
2023/05/10 12:47:23;;;;;;;2.38;2.00;;;;;;;;;;5094462;28;20035;-61
2023/05/10 12:49:49;;;;;;;2.47;1.80;;;;;;;;;;5094129;28;20031;-62
2023/05/10 12:52:14;;;;;;;2.45;2.03;;;;;;;;;;5094017;28;20055;-61
2023/05/10 12:54:40;;;;;;;3.55;2.30;;;;;;;;;;5094325;28;20034;-60
2023/05/10 12:57:05;;;;;;;3.33;2.05;;;;;;;;;;5093946;28;20463;-62
2023/05/10 12:59:31;;;;;;;3.15;2.15;;;;;;;;;;5093889;28;20028;-61
2023/05/10 13:01:57;;;;;;;3.85;2.20;;;;;;;;;;5093915;28;20054;-61
2023/05/10 13:04:23;;;;;;;4.47;2.25;;;;;;;;;;5093815;28;20028;-61
2023/05/10 13:06:48;;;;;;;2.55;2.20;;;;;;;;;;5092462;28;20026;-62
2023/05/10 13:09:14;;;;;;;2.20;1.90;;;;;;;;;;5093696;28;20034;-63
2023/05/10 13:11:40;;;;;;;2.55;2.13;;;;;;;;;;5093739;28;20050;-63
2023/05/10 13:14:06;;;;;;;2.08;1.88;;;;;;;;;;5093651;28;20020;-61
2023/05/10 13:16:31;;;;;;;2.05;1.80;;;;;;;;;;5093760;28;20024;-60
2023/05/10 13:18:58;;;;;;;2.63;2.08;;;;;;;;;;5093622;28;20066;-61
2023/05/10 13:21:24;;;;;;;2.10;1.90;;;;;;;;;;5093819;28;20108;-62
2023/05/10 13:23:50;;;;;;;4.13;2.47;;;;;;;;;;5093490;28;20028;-61
2023/05/10 13:26:16;;;;;;;3.55;2.20;;;;;;;;;;5093744;28;20093;-62
2023/05/10 13:28:41;;;;;;;2.78;2.10;;;;;;;;;;5093392;28;20376;-62
2023/05/10 13:31:07;;;;;;;2.05;1.83;;;;;;;;;;5093331;28;20024;-61
2023/05/10 13:33:33;;;;;;;3.20;2.20;;;;;;;;;;5093588;28;20031;-61
2023/05/10 13:35:58;;;;;;;2.70;1.80;;;;;;;;;;5093149;28;20379;-61
2023/05/10 13:38:24;;;;;;;2.15;1.92;;;;;;;;;;5093313;28;20019;-60
2023/05/10 13:40:52;;;;;;;2.38;2.08;;;;;;;;;;5093246;28;20036;-60
2023/05/10 13:43:18;;;;;;;3.58;2.10;;;;;;;;;;5093078;28;20111;-61
2023/05/10 13:45:44;;;;;;;1.98;1.70;;;;;;;;;;5092217;28;20101;-61
2023/05/10 13:48:09;;;;;;;3.33;2.00;;;;;;;;;;5093055;28;20078;-60
2023/05/10 13:50:35;;;;;;;2.35;1.80;;;;;;;;;;5093033;28;20032;-61
2023/05/10 13:53:00;;;;;;;2.30;2.10;;;;;;;;;;5092609;28;20032;-60
2023/05/10 13:55:26;;;;;;;3.35;1.85;;;;;;;;;;5093210;28;20063;-61
2023/05/10 13:57:52;;;;;;;3.25;2.00;;;;;;;;;;5092809;28;20419;-62
2023/05/10 14:00:17;;;;;;;2.45;1.92;;;;;;;;;;5092935;28;20027;-61
2023/05/10 14:02:43;;;;;;;2.20;2.00;;;;;;;;;;5092844;28;20024;-61
2023/05/10 14:05:09;;;;;;;4.85;2.10;;;;;;;;;;5092796;28;20016;-61
2023/05/10 14:07:34;;;;;;;2.78;2.10;;;;;;;;;;5092735;28;20119;-61
2023/05/10 14:10:00;;;;;;;2.50;2.00;;;;;;;;;;5092725;28;20044;-61
2023/05/10 14:12:26;;;;;;;2.35;1.83;;;;;;;;;;5092686;28;20059;-61
2023/05/10 14:14:52;;;;;;;2.97;2.08;;;;;;;;;;5092749;28;20020;-61
2023/05/10 14:17:17;;;;;;;2.17;1.98;;;;;;;;;;5092562;28;20114;-61
2023/05/10 14:19:43;;;;;;;2.00;1.80;;;;;;;;;;5092587;28;20052;-61
2023/05/10 14:22:09;;;;;;;1.92;1.83;;;;;;;;;;5092653;28;20024;-61
2023/05/10 14:24:34;;;;;;;1.92;1.70;;;;;;;;;;5092582;28;20039;-62
2023/05/10 14:27:00;;;;;;;2.72;2.10;;;;;;;;;;5092790;28;20050;-60
2023/05/10 14:29:26;;;;;;;2.10;1.90;;;;;;;;;;5092385;28;20032;-61
2023/05/10 14:31:51;;;;;;;2.60;1.83;;;;;;;;;;5092413;28;20032;-61
2023/05/10 14:34:17;;;;;;;1.80;1.70;;;;;;;;;;5092759;28;20073;-61
2023/05/10 14:36:42;;;;;;;2.72;1.98;;;;;;;;;;5092374;28;20483;-61
2023/05/10 14:39:09;;;;;;;2.10;1.90;;;;;;;;;;5092327;28;20036;-61
2023/05/10 14:41:35;;;;;;;3.85;2.10;;;;;;;;;;5092704;28;20390;-63
2023/05/10 14:44:03;;;;;;;2.00;1.77;;;;;;;;;;5092406;28;20016;-63
2023/05/10 14:46:29;;;;;;;3.20;2.03;;;;;;;;;;5092654;28;20438;-60